createdAt,value
2017-03-08T00:00:46.606Z,59.21
2017-03-08T00:01:51.184Z,59.22
2017-03-08T00:02:40.237Z,59.22
2017-03-08T00:03:54.059Z,59.25
2017-03-08T00:04:59.852Z,59.25
2017-03-08T00:06:06.264Z,59.28
2017-03-08T00:06:45.026Z,59.25
2017-03-08T00:07:53.351Z,59.27
2017-03-08T00:08:55.747Z,59.29
2017-03-08T00:09:56.272Z,59.30
2017-03-08T00:10:50.505Z,59.31
2017-03-08T00:11:50.625Z,59.30
2017-03-08T00:12:50.044Z,59.30
2017-03-08T00:14:01.052Z,59.30
2017-03-08T00:14:45.353Z,59.29
2017-03-08T00:16:01.419Z,59.31
2017-03-08T00:17:05.360Z,59.32
2017-03-08T00:17:59.619Z,59.30
2017-03-08T00:18:54.435Z,59.30
2017-03-08T00:19:54.778Z,59.34
2017-03-08T00:21:01.426Z,59.34
2017-03-08T00:22:00.812Z,59.33
2017-03-08T00:22:44.869Z,59.33
2017-03-08T00:23:59.836Z,59.36
2017-03-08T00:24:45.689Z,59.36
2017-03-08T00:25:54.715Z,59.35
2017-03-08T00:26:48.270Z,59.38
2017-03-08T00:28:00.630Z,59.39
2017-03-08T00:28:53.828Z,59.40
2017-03-08T00:30:00.523Z,59.40
2017-03-08T00:30:49.622Z,59.41
2017-03-08T00:32:00.294Z,59.43
2017-03-08T00:32:48.754Z,59.43
2017-03-08T00:34:00.933Z,59.44
2017-03-08T00:34:55.564Z,59.46
2017-03-08T00:36:00.519Z,59.41
2017-03-08T00:36:54.315Z,58.90
2017-03-08T00:37:51.075Z,59.30
2017-03-08T00:38:49.330Z,59.38
2017-03-08T00:39:55.098Z,59.43
2017-03-08T00:41:01.044Z,59.47
2017-03-08T00:42:00.191Z,59.48
2017-03-08T00:42:54.126Z,59.50
2017-03-08T00:43:46.043Z,59.51
2017-03-08T00:44:50.292Z,59.52
2017-03-08T00:45:56.591Z,59.53
2017-03-08T00:46:56.832Z,59.50
2017-03-08T00:47:50.634Z,59.52
2017-03-08T00:49:01.276Z,59.55
2017-03-08T00:49:56.819Z,59.55
2017-03-08T00:51:00.540Z,59.58
2017-03-08T00:51:49.720Z,59.54
2017-03-08T00:53:01.043Z,59.60
2017-03-08T00:53:50.129Z,59.58
2017-03-08T00:55:31.115Z,59.62
2017-03-08T00:55:58.779Z,59.67
2017-03-08T00:57:01.055Z,59.67
2017-03-08T00:57:50.726Z,59.72
2017-03-08T00:59:03.392Z,59.75
2017-03-08T00:59:52.794Z,59.80
2017-03-08T01:00:50.832Z,59.84
2017-03-08T01:01:55.116Z,59.83
2017-03-08T01:03:16.547Z,59.82
2017-03-08T01:03:55.457Z,59.83
2017-03-08T01:04:39.600Z,59.89
2017-03-08T01:06:08.347Z,59.86
2017-03-08T01:06:50.662Z,59.90
2017-03-08T01:07:49.962Z,59.90
2017-03-08T01:08:50.095Z,59.88
2017-03-08T01:09:49.883Z,59.90
2017-03-08T01:10:50.689Z,59.92
2017-03-08T01:12:00.571Z,59.95
2017-03-08T01:12:53.904Z,59.96
2017-03-08T01:14:05.012Z,59.92
2017-03-08T01:14:54.095Z,59.96
2017-03-08T01:15:54.789Z,59.95
2017-03-08T01:16:50.674Z,59.94
2017-03-08T01:18:01.122Z,59.94
2017-03-08T01:18:53.912Z,59.96
2017-03-08T01:19:50.326Z,59.95
2017-03-08T01:20:45.245Z,59.99
2017-03-08T01:21:59.948Z,60.00
2017-03-08T01:22:49.375Z,59.97
2017-03-08T01:23:51.461Z,59.96
2017-03-08T01:24:50.646Z,59.97
2017-03-08T01:25:55.135Z,59.98
2017-03-08T01:26:54.266Z,59.99
2017-03-08T01:28:17.888Z,60.02
2017-03-08T01:28:51.127Z,60.00
2017-03-08T01:29:54.772Z,60.02
2017-03-08T01:30:55.856Z,60.02
2017-03-08T01:31:52.356Z,60.05
2017-03-08T01:32:51.143Z,60.05
2017-03-08T01:34:01.145Z,60.03
2017-03-08T01:34:51.144Z,60.07
2017-03-08T01:35:49.721Z,60.05
2017-03-08T01:36:39.082Z,60.04
2017-03-08T01:37:44.052Z,60.08
2017-03-08T01:38:41.820Z,60.10
2017-03-08T01:39:45.734Z,60.11
2017-03-08T01:40:41.231Z,60.14
2017-03-08T01:41:57.821Z,60.10
2017-03-08T01:42:46.768Z,60.16
2017-03-08T01:43:46.695Z,60.14
2017-03-08T01:45:01.042Z,60.13
2017-03-08T01:46:21.053Z,60.17
2017-03-08T01:47:00.899Z,60.14
2017-03-08T01:48:04.502Z,60.16
2017-03-08T01:49:05.147Z,60.19
2017-03-08T01:49:54.682Z,60.20
2017-03-08T01:50:55.763Z,60.21
2017-03-08T01:51:40.725Z,60.21
2017-03-08T01:52:46.951Z,60.22
2017-03-08T01:53:45.417Z,60.24
2017-03-08T01:54:54.144Z,60.24
2017-03-08T01:55:49.406Z,60.21
2017-03-08T01:57:02.469Z,60.20
2017-03-08T01:58:01.144Z,60.26
2017-03-08T01:59:01.062Z,60.26
2017-03-08T01:59:55.663Z,60.29
2017-03-08T02:00:55.572Z,60.30
2017-03-08T02:01:48.762Z,60.31
2017-03-08T02:02:55.864Z,60.33
2017-03-08T02:03:55.789Z,60.34
2017-03-08T02:05:01.119Z,60.39
2017-03-08T02:05:55.638Z,60.39
2017-03-08T02:06:50.435Z,60.38
2017-03-08T02:07:40.259Z,60.42
2017-03-08T02:08:51.691Z,60.42
2017-03-08T02:09:45.945Z,60.40
2017-03-08T02:10:45.799Z,60.40
2017-03-08T02:12:56.889Z,60.43
2017-03-08T02:13:56.607Z,60.44
2017-03-08T02:14:56.618Z,60.44
2017-03-08T02:15:56.821Z,60.45
2017-03-08T02:16:50.473Z,60.48
2017-03-08T02:17:55.317Z,60.49
2017-03-08T02:18:49.731Z,60.49
2017-03-08T02:19:56.953Z,60.46
2017-03-08T02:20:54.525Z,60.50
2017-03-08T02:22:00.253Z,60.51
2017-03-08T02:22:49.640Z,60.47
2017-03-08T02:24:11.703Z,60.52
2017-03-08T02:25:23.459Z,60.51
2017-03-08T02:26:01.347Z,60.48
2017-03-08T02:26:50.712Z,60.49
2017-03-08T02:28:19.184Z,60.51
2017-03-08T02:28:53.106Z,60.51
2017-03-08T02:29:59.410Z,60.52
2017-03-08T02:31:11.978Z,60.57
2017-03-08T02:31:55.912Z,60.54
2017-03-08T02:32:51.076Z,60.53
2017-03-08T02:33:52.918Z,60.52
2017-03-08T02:34:45.286Z,60.51
2017-03-08T02:35:56.183Z,60.55
2017-03-08T02:36:45.106Z,60.57
2017-03-08T02:38:18.186Z,60.57
2017-03-08T02:38:58.781Z,60.56
2017-03-08T02:39:49.813Z,60.57
2017-03-08T02:40:54.054Z,60.61
2017-03-08T02:41:50.503Z,60.58
2017-03-08T02:42:56.385Z,59.59
2017-03-08T02:44:00.271Z,59.45
2017-03-08T02:44:49.700Z,59.34
2017-03-08T02:45:46.660Z,59.70
2017-03-08T02:46:55.476Z,60.24
2017-03-08T02:47:49.878Z,60.41
2017-03-08T02:48:53.396Z,60.57
2017-03-08T02:49:50.304Z,60.61
2017-03-08T02:50:54.941Z,60.67
2017-03-08T02:51:49.851Z,60.72
2017-03-08T02:52:57.314Z,60.76
2017-03-08T02:53:53.671Z,60.79
2017-03-08T02:55:01.214Z,60.78
2017-03-08T02:55:51.999Z,60.84
2017-03-08T02:56:58.433Z,60.84
2017-03-08T02:57:44.759Z,60.86
2017-03-08T02:59:18.038Z,60.87
2017-03-08T03:00:01.071Z,60.89
2017-03-08T03:01:00.124Z,60.94
2017-03-08T03:01:55.292Z,60.97
2017-03-08T03:02:50.802Z,61.02
2017-03-08T03:03:55.545Z,60.97
2017-03-08T03:04:53.562Z,60.99
2017-03-08T03:05:39.690Z,60.98
2017-03-08T03:06:50.918Z,61.01
2017-03-08T03:07:51.076Z,60.93
2017-03-08T03:09:04.236Z,60.56
2017-03-08T03:09:53.577Z,60.83
2017-03-08T03:10:40.668Z,60.97
2017-03-08T03:11:47.236Z,60.98
2017-03-08T03:12:50.494Z,61.01
2017-03-08T03:13:50.977Z,61.02
2017-03-08T03:14:44.669Z,61.03
2017-03-08T03:15:51.821Z,61.07
2017-03-08T03:16:46.769Z,61.03
2017-03-08T03:17:56.389Z,61.10
2017-03-08T03:18:55.847Z,60.97
2017-03-08T03:20:00.928Z,60.11
2017-03-08T03:20:49.663Z,59.93
2017-03-08T03:22:01.014Z,59.85
2017-03-08T03:22:59.749Z,59.80
2017-03-08T03:23:54.148Z,60.03
2017-03-08T03:24:55.613Z,60.68
2017-03-08T03:26:15.452Z,60.90
2017-03-08T03:26:59.200Z,60.99
2017-03-08T03:27:59.872Z,61.07
2017-03-08T03:28:51.050Z,61.15
2017-03-08T03:30:05.664Z,61.14
2017-03-08T03:30:54.203Z,61.19
2017-03-08T03:31:55.014Z,61.17
2017-03-08T03:32:56.030Z,61.14
2017-03-08T03:33:55.261Z,61.18
2017-03-08T03:34:51.012Z,61.18
2017-03-08T03:35:59.862Z,61.16
2017-03-08T03:36:53.763Z,61.22
2017-03-08T03:37:50.849Z,61.22
2017-03-08T03:38:51.216Z,61.23
2017-03-08T03:39:50.080Z,61.24
2017-03-08T03:41:03.320Z,61.25
2017-03-08T03:41:47.393Z,61.23
2017-03-08T03:42:49.869Z,61.25
2017-03-08T03:43:55.611Z,61.24
2017-03-08T03:44:59.568Z,61.27
2017-03-08T03:46:03.991Z,61.24
2017-03-08T03:47:03.397Z,61.24
2017-03-08T03:47:53.081Z,61.26
2017-03-08T03:48:50.261Z,61.26
2017-03-08T03:50:18.498Z,61.26
2017-03-08T03:51:02.552Z,61.27
2017-03-08T03:52:06.965Z,61.27
2017-03-08T03:53:26.813Z,61.27
2017-03-08T03:53:59.540Z,61.26
2017-03-08T03:54:59.547Z,61.28
2017-03-08T03:55:49.856Z,61.27
2017-03-08T03:56:50.877Z,61.28
2017-03-08T03:57:50.702Z,61.29
2017-03-08T03:59:01.127Z,61.27
2017-03-08T03:59:50.772Z,61.26
2017-03-08T04:00:57.635Z,61.32
2017-03-08T04:02:06.912Z,61.30
2017-03-08T04:02:51.016Z,61.29
2017-03-08T04:03:54.115Z,61.31
2017-03-08T04:05:16.615Z,61.27
2017-03-08T04:05:56.010Z,61.29
2017-03-08T04:06:40.192Z,61.30
2017-03-08T04:07:55.663Z,61.28
2017-03-08T04:08:56.129Z,61.29
2017-03-08T04:10:03.125Z,61.30
2017-03-08T04:10:57.125Z,61.32
2017-03-08T04:11:57.026Z,61.33
2017-03-08T04:12:50.843Z,61.31
2017-03-08T04:14:02.433Z,61.32
2017-03-08T04:14:55.854Z,61.32
2017-03-08T04:16:07.080Z,61.32
2017-03-08T04:17:01.033Z,61.30
2017-03-08T04:18:00.178Z,61.30
2017-03-08T04:18:48.024Z,61.31
2017-03-08T04:20:00.263Z,61.27
2017-03-08T04:20:59.870Z,61.29
2017-03-08T04:21:48.470Z,61.29
2017-03-08T04:22:50.257Z,61.25
2017-03-08T04:23:55.814Z,61.27
2017-03-08T04:24:45.748Z,61.29
2017-03-08T04:26:12.820Z,61.28
2017-03-08T04:26:54.363Z,61.30
2017-03-08T04:27:57.343Z,61.26
2017-03-08T04:28:49.889Z,61.29
2017-03-08T04:29:49.186Z,61.25
2017-03-08T04:30:51.048Z,61.29
2017-03-08T04:32:00.080Z,61.31
2017-03-08T04:32:50.304Z,61.29
2017-03-08T04:33:55.654Z,61.33
2017-03-08T04:34:55.571Z,61.33
2017-03-08T04:35:51.085Z,61.32
2017-03-08T04:36:43.123Z,61.35
2017-03-08T04:37:54.482Z,61.32
2017-03-08T04:38:55.735Z,61.32
2017-03-08T04:39:46.709Z,61.34
2017-03-08T04:40:54.889Z,61.40
2017-03-08T04:41:55.858Z,61.36
2017-03-08T04:42:54.897Z,61.38
2017-03-08T04:43:49.856Z,61.41
2017-03-08T04:44:46.605Z,61.41
2017-03-08T04:45:51.695Z,61.42
2017-03-08T04:47:00.753Z,61.38
2017-03-08T04:47:49.337Z,61.36
2017-03-08T04:48:54.347Z,61.41
2017-03-08T04:49:50.572Z,61.38
2017-03-08T04:51:01.042Z,61.41
2017-03-08T04:51:51.190Z,61.43
2017-03-08T04:52:59.648Z,61.44
2017-03-08T04:53:44.536Z,61.42
2017-03-08T04:55:00.835Z,61.43
2017-03-08T04:55:51.800Z,61.30
2017-03-08T04:56:51.166Z,60.44
2017-03-08T04:57:54.535Z,60.17
2017-03-08T04:59:01.132Z,60.07
2017-03-08T04:59:51.130Z,60.05
2017-03-08T05:00:48.962Z,59.98
2017-03-08T05:01:55.784Z,60.90
2017-03-08T05:03:05.699Z,61.13
2017-03-08T05:03:54.510Z,61.22
2017-03-08T05:04:50.731Z,61.26
2017-03-08T05:06:50.975Z,61.40
2017-03-08T05:07:56.009Z,61.39
2017-03-08T05:08:45.345Z,61.39
2017-03-08T05:09:58.840Z,61.40
2017-03-08T05:11:01.061Z,61.38
2017-03-08T05:11:59.904Z,61.43
2017-03-08T05:12:44.185Z,61.42
2017-03-08T05:14:00.739Z,61.43
2017-03-08T05:14:50.289Z,61.45
2017-03-08T05:16:00.262Z,61.42
2017-03-08T05:16:55.036Z,61.46
2017-03-08T05:17:55.705Z,61.41
2017-03-08T05:18:51.053Z,61.44
2017-03-08T05:20:00.187Z,61.44
2017-03-08T05:20:48.391Z,61.43
2017-03-08T05:21:55.369Z,61.41
2017-03-08T05:22:34.828Z,61.41
2017-03-08T05:23:55.823Z,61.41
2017-03-08T05:25:00.451Z,61.43
2017-03-08T05:25:58.849Z,61.41
2017-03-08T05:26:49.960Z,61.38
2017-03-08T05:28:04.684Z,61.40
2017-03-08T05:28:49.864Z,61.41
2017-03-08T05:29:46.729Z,61.42
2017-03-08T05:30:55.371Z,61.41
2017-03-08T05:31:50.936Z,61.37
2017-03-08T05:32:51.250Z,61.38
2017-03-08T05:33:48.917Z,61.42
2017-03-08T05:34:50.176Z,61.40
2017-03-08T05:35:54.146Z,61.41
2017-03-08T05:36:56.849Z,61.44
2017-03-08T05:37:46.762Z,61.43
2017-03-08T05:38:56.984Z,61.43
2017-03-08T05:39:49.732Z,61.44
2017-03-08T05:41:01.131Z,61.46
2017-03-08T05:41:50.208Z,61.45
2017-03-08T05:43:12.217Z,61.42
2017-03-08T05:43:52.543Z,61.46
2017-03-08T05:44:52.081Z,61.42
2017-03-08T05:46:02.914Z,61.43
2017-03-08T05:47:02.504Z,61.44
2017-03-08T05:47:49.983Z,61.44
2017-03-08T05:48:55.942Z,61.45
2017-03-08T05:49:49.426Z,61.46
2017-03-08T05:51:01.685Z,61.44
2017-03-08T05:51:58.250Z,61.46
2017-03-08T05:52:50.966Z,61.45
2017-03-08T05:53:48.489Z,61.42
2017-03-08T05:55:03.842Z,61.47
2017-03-08T05:56:24.731Z,61.50
2017-03-08T05:56:58.212Z,61.43
2017-03-08T05:57:47.302Z,61.49
2017-03-08T05:58:50.854Z,61.47
2017-03-08T06:00:24.663Z,61.49
2017-03-08T06:00:51.975Z,61.42
2017-03-08T06:01:54.561Z,61.42
2017-03-08T06:02:49.877Z,61.44
2017-03-08T06:03:55.273Z,61.46
2017-03-08T06:04:51.238Z,61.46
2017-03-08T06:05:53.355Z,61.45
2017-03-08T06:06:52.622Z,60.42
2017-03-08T06:07:54.247Z,60.25
2017-03-08T06:08:50.463Z,60.47
2017-03-08T06:09:54.176Z,61.03
2017-03-08T06:10:40.036Z,61.23
2017-03-08T06:12:14.105Z,61.30
2017-03-08T06:12:58.542Z,61.38
2017-03-08T06:13:59.077Z,61.41
2017-03-08T06:14:50.110Z,61.41
2017-03-08T06:16:01.361Z,61.43
2017-03-08T06:16:50.448Z,61.43
2017-03-08T06:17:47.316Z,61.47
2017-03-08T06:18:43.161Z,61.50
2017-03-08T06:19:40.520Z,61.45
2017-03-08T06:20:50.379Z,61.49
2017-03-08T06:21:44.917Z,61.52
2017-03-08T06:22:57.133Z,61.48
2017-03-08T06:23:45.756Z,61.47
2017-03-08T06:25:02.574Z,61.47
2017-03-08T06:25:40.753Z,61.52
2017-03-08T06:26:51.366Z,61.58
2017-03-08T06:27:44.517Z,61.67
2017-03-08T06:28:55.190Z,60.61
2017-03-08T06:29:32.536Z,60.42
2017-03-08T06:30:20.509Z,60.26
2017-03-08T06:31:32.342Z,60.25
2017-03-08T06:32:37.554Z,60.17
2017-03-08T06:33:17.810Z,60.24
2017-03-08T06:34:21.276Z,60.21
2017-03-08T06:35:23.528Z,60.14
2017-03-08T06:36:23.651Z,60.92
2017-03-08T06:37:28.596Z,61.63
2017-03-08T06:38:33.681Z,61.74
2017-03-08T06:39:24.186Z,61.79
2017-03-08T06:40:20.768Z,61.76
2017-03-08T06:41:27.996Z,61.83
2017-03-08T06:42:25.909Z,61.80
2017-03-08T06:43:19.572Z,61.82
2017-03-08T06:44:24.400Z,61.91
2017-03-08T06:45:21.603Z,61.77
2017-03-08T06:46:18.434Z,62.00
2017-03-08T06:47:24.595Z,61.89
2017-03-08T06:48:29.322Z,61.83
2017-03-08T06:49:56.272Z,61.75
2017-03-08T06:50:25.568Z,61.77
2017-03-08T06:51:26.038Z,61.33
2017-03-08T06:52:20.700Z,61.42
2017-03-08T06:53:21.828Z,61.25
2017-03-08T06:54:20.457Z,60.61
2017-03-08T06:55:31.883Z,60.21
2017-03-08T06:56:33.716Z,60.53
2017-03-08T06:57:26.465Z,60.90
2017-03-08T06:58:18.613Z,61.18
2017-03-08T06:59:20.516Z,61.35
2017-03-08T07:00:20.221Z,61.34
2017-03-08T07:01:21.276Z,61.37
2017-03-08T07:02:23.524Z,61.19
2017-03-08T07:03:20.994Z,61.09
2017-03-08T07:04:23.661Z,60.84
2017-03-08T07:05:22.877Z,60.52
2017-03-08T07:06:28.045Z,60.54
2017-03-08T07:07:54.948Z,60.43
2017-03-08T07:08:50.047Z,60.19
2017-03-08T07:09:44.355Z,60.06
2017-03-08T07:10:39.500Z,60.04
2017-03-08T07:11:53.055Z,59.46
2017-03-08T07:12:44.404Z,59.79
2017-03-08T07:13:40.168Z,59.86
2017-03-08T07:14:49.152Z,59.77
2017-03-08T07:15:39.321Z,59.62
2017-03-08T07:16:53.078Z,59.66
2017-03-08T07:17:39.523Z,59.28
2017-03-08T07:18:50.110Z,59.43
2017-03-08T07:19:55.760Z,59.51
2017-03-08T07:20:51.067Z,59.54
2017-03-08T07:21:33.505Z,59.48
2017-03-08T07:22:50.029Z,59.53
2017-03-08T07:23:30.096Z,59.45
2017-03-08T07:24:41.909Z,59.45
2017-03-08T07:25:50.135Z,59.39
2017-03-08T07:26:27.962Z,59.35
2017-03-08T07:27:57.177Z,59.23
2017-03-08T07:28:35.978Z,59.23
2017-03-08T07:29:50.538Z,59.16
2017-03-08T07:30:40.445Z,59.18
2017-03-08T07:31:28.415Z,59.12
2017-03-08T07:32:45.513Z,58.99
2017-03-08T07:33:39.388Z,58.94
2017-03-08T07:34:49.540Z,58.99
2017-03-08T07:35:40.475Z,58.91
2017-03-08T07:36:43.471Z,58.93
2017-03-08T07:37:39.160Z,58.87
2017-03-08T07:38:48.720Z,58.82
2017-03-08T07:39:53.750Z,58.81
2017-03-08T07:40:55.656Z,58.77
2017-03-08T07:41:55.546Z,58.75
2017-03-08T07:42:29.113Z,58.74
2017-03-08T07:43:40.564Z,58.71
2017-03-08T07:44:40.431Z,58.70
2017-03-08T07:45:54.345Z,58.69
2017-03-08T07:46:41.907Z,58.64
2017-03-08T07:47:48.996Z,58.65
2017-03-08T07:48:34.736Z,58.58
2017-03-08T07:49:47.536Z,58.60
2017-03-08T07:50:46.563Z,58.61
2017-03-08T07:51:40.502Z,58.57
2017-03-08T07:52:40.227Z,58.59
2017-03-08T07:53:35.574Z,58.56
2017-03-08T07:54:50.702Z,58.58
2017-03-08T07:55:33.565Z,58.60
2017-03-08T07:56:44.214Z,58.56
2017-03-08T07:57:46.372Z,58.56
2017-03-08T07:58:40.318Z,58.55
2017-03-08T07:59:37.405Z,58.52
2017-03-08T08:00:32.104Z,58.54
2017-03-08T08:01:38.663Z,58.52
2017-03-08T08:02:52.771Z,58.54
2017-03-08T08:03:40.081Z,58.53
2017-03-08T08:04:54.484Z,58.52
2017-03-08T08:05:52.675Z,58.54
2017-03-08T08:06:49.706Z,58.53
2017-03-08T08:07:37.655Z,58.52
2017-03-08T08:08:42.169Z,58.52
2017-03-08T08:09:31.216Z,58.54
2017-03-08T08:10:41.775Z,58.51
2017-03-08T08:12:00.475Z,58.50
2017-03-08T08:12:37.417Z,58.48
2017-03-08T08:13:52.426Z,58.50
2017-03-08T08:14:54.449Z,58.47
2017-03-08T08:15:39.375Z,58.51
2017-03-08T08:16:55.567Z,58.53
2017-03-08T08:17:40.156Z,58.51
2017-03-08T08:19:00.475Z,58.51
2017-03-08T08:19:35.598Z,58.51
2017-03-08T08:27:55.770Z,58.48
2017-03-08T08:28:34.680Z,58.49
2017-03-08T08:29:55.608Z,58.47
2017-03-08T08:30:39.417Z,58.45
2017-03-08T08:31:36.343Z,58.49
2017-03-08T08:32:49.299Z,58.51
2017-03-08T08:33:37.828Z,58.53
2017-03-08T08:34:45.376Z,58.51
2017-03-08T08:35:37.988Z,58.51
2017-03-08T08:36:48.485Z,58.49
2017-03-08T08:38:55.384Z,58.51
2017-03-08T08:39:37.757Z,58.51
2017-03-08T08:40:45.862Z,58.53
2017-03-08T08:41:38.854Z,58.53
2017-03-08T08:42:53.688Z,58.55
2017-03-08T08:43:40.346Z,58.54
2017-03-08T08:44:43.132Z,58.55
2017-03-08T08:45:39.397Z,58.55
2017-03-08T08:46:50.046Z,58.56
2017-03-08T08:47:51.083Z,58.56
2017-03-08T09:25:49.780Z,58.46
2017-03-08T09:26:43.565Z,58.46
2017-03-08T09:27:42.400Z,58.47
2017-03-08T09:28:41.046Z,58.46
2017-03-08T09:29:47.992Z,58.47
2017-03-08T09:30:48.906Z,58.45
2017-03-08T09:31:49.797Z,58.45
2017-03-08T09:32:49.985Z,58.46
2017-03-08T09:33:39.590Z,58.46
2017-03-08T09:34:57.790Z,58.44
2017-03-08T09:35:48.833Z,58.43
2017-03-08T09:36:51.345Z,58.40
2017-03-08T09:37:37.986Z,58.41
2017-03-08T09:38:37.347Z,58.39
2017-03-08T09:39:43.748Z,58.25
2017-03-08T09:44:44.560Z,58.33
2017-03-08T09:45:39.500Z,58.34
2017-03-08T09:46:39.198Z,58.35
2017-03-08T09:47:42.953Z,58.34
2017-03-08T09:48:41.940Z,58.34
2017-03-08T09:49:48.016Z,58.33
2017-03-08T09:50:48.337Z,58.33
2017-03-08T09:52:02.422Z,58.33
2017-03-08T09:52:42.241Z,58.34
2017-03-08T09:53:38.389Z,58.34
2017-03-08T09:54:40.159Z,58.32
2017-03-08T09:55:38.584Z,58.33
2017-03-08T09:56:38.691Z,58.33
2017-03-08T09:57:45.314Z,58.33
2017-03-08T09:58:40.513Z,58.32
2017-03-08T09:59:50.573Z,58.33
2017-03-08T10:00:48.856Z,58.33
2017-03-08T10:01:37.922Z,58.32
2017-03-08T10:02:40.072Z,58.33
2017-03-08T10:03:53.996Z,58.31
2017-03-08T10:04:34.904Z,58.32
2017-03-08T10:05:59.840Z,58.18
2017-03-08T10:06:49.960Z,57.41
2017-03-08T10:07:49.380Z,57.18
2017-03-08T10:08:39.005Z,57.01
2017-03-08T10:09:49.540Z,57.00
2017-03-08T10:10:44.584Z,56.96
2017-03-08T10:11:49.160Z,56.94
2017-03-08T10:12:43.209Z,56.93
2017-03-08T10:13:39.317Z,56.90
2017-03-08T10:14:43.361Z,57.11
2017-03-08T10:15:54.580Z,57.81
2017-03-08T10:16:34.551Z,58.00
2017-03-08T10:17:43.990Z,58.10
2017-03-08T10:18:44.402Z,58.16
2017-03-08T10:19:55.054Z,58.18
2017-03-08T10:20:50.108Z,58.21
2017-03-08T10:21:39.821Z,58.22
2017-03-08T10:22:39.944Z,58.24
2017-03-08T10:23:33.381Z,58.24
2017-03-08T10:24:38.578Z,58.26
2017-03-08T10:25:38.781Z,58.26
2017-03-08T10:26:40.496Z,58.27
2017-03-08T10:27:48.623Z,58.27
2017-03-08T10:28:57.212Z,58.26
2017-03-08T10:29:37.191Z,58.27
2017-03-08T10:30:39.014Z,58.03
2017-03-08T10:31:44.199Z,57.35
2017-03-08T10:32:49.747Z,57.52
2017-03-08T10:33:50.681Z,57.96
2017-03-08T10:34:50.082Z,58.10
2017-03-08T10:35:38.891Z,58.16
2017-03-08T10:36:37.098Z,58.19
2017-03-08T10:37:46.273Z,58.21
2017-03-08T10:38:50.521Z,58.22
2017-03-08T10:39:39.877Z,58.22
2017-03-08T10:40:32.500Z,58.23
2017-03-08T10:41:40.756Z,58.24
2017-03-08T10:42:54.372Z,58.23
2017-03-08T10:43:37.506Z,58.23
2017-03-08T10:44:25.320Z,58.24
2017-03-08T10:45:45.534Z,58.24
2017-03-08T10:46:30.056Z,58.23
2017-03-08T10:47:37.838Z,58.22
2017-03-08T10:48:33.420Z,58.23
2017-03-08T10:49:43.597Z,58.25
2017-03-08T10:50:47.850Z,58.22
2017-03-08T10:51:36.396Z,58.22
2017-03-08T10:52:49.532Z,58.20
2017-03-08T10:53:38.971Z,58.20
2017-03-08T10:54:39.367Z,58.21
2017-03-08T10:55:39.049Z,58.19
2017-03-08T10:56:53.387Z,58.21
2017-03-08T10:57:37.704Z,58.19
2017-03-08T10:58:39.911Z,58.19
2017-03-08T10:59:34.260Z,58.20
2017-03-08T11:00:39.437Z,58.19
2017-03-08T11:01:46.265Z,58.19
2017-03-08T11:02:40.299Z,58.17
2017-03-08T11:03:55.485Z,58.18
2017-03-08T11:04:33.206Z,58.17
2017-03-08T11:05:38.429Z,58.19
2017-03-08T11:06:37.437Z,58.18
2017-03-08T11:07:38.570Z,58.18
2017-03-08T11:08:49.677Z,58.18
2017-03-08T11:09:28.889Z,58.16
2017-03-08T11:10:48.571Z,58.17
2017-03-08T11:11:48.858Z,58.15
2017-03-08T11:12:40.461Z,58.15
2017-03-08T11:13:38.235Z,58.16
2017-03-08T11:14:40.966Z,58.14
2017-03-08T11:15:49.830Z,58.13
2017-03-08T11:16:50.989Z,58.14
2017-03-08T11:17:42.887Z,58.14
2017-03-08T11:18:56.844Z,58.12
2017-03-08T11:19:44.012Z,58.14
2017-03-08T11:20:48.651Z,58.12
2017-03-08T11:21:39.578Z,58.13
2017-03-08T11:22:36.899Z,58.12
2017-03-08T11:23:38.930Z,58.11
2017-03-08T11:24:44.082Z,58.10
2017-03-08T11:25:39.993Z,58.11
2017-03-08T11:26:42.062Z,58.10
2017-03-08T11:27:33.705Z,58.09
2017-03-08T11:28:32.857Z,58.10
2017-03-08T11:29:38.167Z,58.10
2017-03-08T11:30:36.203Z,58.10
2017-03-08T11:31:34.583Z,58.09
2017-03-08T11:32:38.958Z,58.09
2017-03-08T11:33:40.400Z,58.10
2017-03-08T11:34:39.175Z,58.09
2017-03-08T11:35:42.563Z,58.08
2017-03-08T11:36:39.788Z,58.09
2017-03-08T11:37:39.426Z,58.09
2017-03-08T11:38:34.415Z,58.08
2017-03-08T11:39:44.516Z,58.12
2017-03-08T11:40:37.270Z,57.17
2017-03-08T11:41:47.023Z,56.97
2017-03-08T11:42:27.943Z,56.85
2017-03-08T11:43:32.508Z,56.79
2017-03-08T11:44:34.286Z,56.76
2017-03-08T11:45:32.423Z,57.01
2017-03-08T11:46:39.182Z,57.63
2017-03-08T11:47:49.345Z,57.84
2017-03-08T11:48:44.506Z,57.92
2017-03-08T11:49:49.974Z,57.97
2017-03-08T11:50:36.098Z,58.01
2017-03-08T11:51:36.405Z,58.03
2017-03-08T11:52:38.365Z,58.03
2017-03-08T11:53:36.925Z,58.05
2017-03-08T11:54:37.797Z,58.06
2017-03-08T11:55:51.244Z,58.06
2017-03-08T11:56:37.726Z,58.06
2017-03-08T11:57:40.094Z,58.08
2017-03-08T11:58:44.332Z,58.08
2017-03-08T11:59:33.127Z,58.08
2017-03-08T12:00:48.994Z,58.09
2017-03-08T12:01:38.579Z,58.07
2017-03-08T12:02:43.420Z,58.08
2017-03-08T12:03:39.199Z,58.08
2017-03-08T12:04:39.129Z,58.08
2017-03-08T12:05:47.475Z,58.09
2017-03-08T12:06:54.581Z,58.09
2017-03-08T12:07:55.119Z,58.08
2017-03-08T12:08:56.008Z,58.10
2017-03-08T12:09:33.961Z,58.10
2017-03-08T12:10:40.627Z,58.09
2017-03-08T12:11:40.372Z,58.09
2017-03-08T12:12:55.667Z,58.10
2017-03-08T12:13:33.408Z,58.11
2017-03-08T12:14:42.570Z,58.10
2017-03-08T12:15:41.154Z,58.10
2017-03-08T12:16:38.121Z,58.10
2017-03-08T12:17:50.290Z,58.10
2017-03-08T12:18:34.797Z,58.10
2017-03-08T12:19:43.555Z,58.10
2017-03-08T12:20:34.828Z,58.11
2017-03-08T12:21:44.191Z,58.11
2017-03-08T12:22:49.890Z,58.11
2017-03-08T12:23:53.239Z,58.11
2017-03-08T12:24:50.156Z,58.11
2017-03-08T12:25:42.110Z,58.11
2017-03-08T12:26:38.971Z,58.11
2017-03-08T12:27:55.446Z,58.10
2017-03-08T12:28:55.600Z,58.11
2017-03-08T12:29:57.650Z,58.11
2017-03-08T12:30:48.224Z,58.13
2017-03-08T12:31:57.209Z,58.12
2017-03-08T12:32:48.718Z,58.12
2017-03-08T12:34:01.250Z,58.13
2017-03-08T12:34:49.254Z,58.11
2017-03-08T12:35:59.891Z,58.11
2017-03-08T12:36:35.153Z,58.11
2017-03-08T12:37:52.203Z,58.11
2017-03-08T12:38:34.033Z,58.12
2017-03-08T12:39:38.049Z,58.10
2017-03-08T12:40:58.265Z,58.12
2017-03-08T12:41:54.289Z,58.11
2017-03-08T12:42:44.813Z,58.13
2017-03-08T12:43:35.111Z,58.11
2017-03-08T12:44:42.788Z,58.11
2017-03-08T12:45:40.690Z,58.12
2017-03-08T12:46:47.943Z,58.11
2017-03-08T12:47:39.768Z,58.11
2017-03-08T12:48:48.963Z,58.12
2017-03-08T12:49:42.891Z,58.11
2017-03-08T12:50:53.923Z,58.11
2017-03-08T12:52:04.254Z,58.12
2017-03-08T12:52:47.648Z,58.13
2017-03-08T12:53:51.083Z,58.11
2017-03-08T12:54:39.359Z,58.10
2017-03-08T12:55:39.414Z,58.10
2017-03-08T12:56:41.953Z,58.10
2017-03-08T12:57:56.821Z,58.11
2017-03-08T12:58:49.061Z,58.10
2017-03-08T12:59:32.687Z,58.10
2017-03-08T13:00:35.244Z,58.08
2017-03-08T13:01:47.601Z,58.09
2017-03-08T13:02:39.045Z,58.09
2017-03-08T13:03:49.908Z,58.10
2017-03-08T13:04:35.475Z,58.09
2017-03-08T13:05:49.391Z,58.08
2017-03-08T13:06:50.372Z,58.09
2017-03-08T13:07:49.922Z,58.09
2017-03-08T13:08:39.017Z,58.08
2017-03-08T13:09:53.405Z,58.07
2017-03-08T13:10:49.109Z,58.10
2017-03-08T13:11:38.630Z,58.10
2017-03-08T13:12:51.163Z,58.10
2017-03-08T13:13:34.077Z,58.10
2017-03-08T13:14:50.054Z,58.09
2017-03-08T13:15:50.689Z,58.08
2017-03-08T13:16:50.768Z,58.09
2017-03-08T13:17:40.458Z,58.08
2017-03-08T13:18:39.156Z,58.09
2017-03-08T13:19:34.402Z,58.08
2017-03-08T13:20:34.493Z,58.08
2017-03-08T13:21:40.134Z,58.09
2017-03-08T13:22:39.435Z,58.08
2017-03-08T13:23:51.966Z,58.07
2017-03-08T13:24:55.623Z,58.10
2017-03-08T13:25:55.064Z,57.95
2017-03-08T13:26:44.227Z,57.16
2017-03-08T13:27:50.840Z,56.96
2017-03-08T13:29:00.368Z,57.14
2017-03-08T13:29:44.114Z,57.73
2017-03-08T13:30:54.804Z,57.90
2017-03-08T13:32:01.072Z,57.94
2017-03-08T13:33:05.650Z,57.92
2017-03-08T13:33:39.156Z,57.94
2017-03-08T13:34:57.005Z,57.92
2017-03-08T13:35:49.342Z,57.96
2017-03-08T13:36:54.182Z,57.97
2017-03-08T13:37:46.019Z,58.00
2017-03-08T13:38:55.252Z,57.99
2017-03-08T13:39:49.369Z,58.00
2017-03-08T13:40:46.153Z,58.03
2017-03-08T13:41:59.909Z,57.57
2017-03-08T13:42:53.316Z,57.33
2017-03-08T13:43:44.183Z,56.97